Time;durP1;ratioP1;P1;durP2;ratioP2;P2;SDS_P1;SDS_P2;PMS_P1;PMS_P2;Temp;Humidity;BMP_temperature;BMP_pressure;BME280_temperature;BME280_humidity;BME280_pressure;Samples;Min_cycle;Max_cycle;Signal;HPM_P1;HPM_P2
2022/12/11 00:02:24;;;;;;;9.98;6.62;;;0.90;99.90;;;;;;1889136;75;21554;-86
2022/12/11 00:05:16;;;;;;;7.72;5.20;;;0.80;99.90;;;;;;1885154;75;21121;-86
2022/12/11 00:08:08;;;;;;;9.18;6.55;;;0.80;99.90;;;;;;1892939;75;21087;-87
2022/12/11 00:11:00;;;;;;;8.53;5.67;;;0.80;99.90;;;;;;1884789;75;21167;-85
2022/12/11 00:13:51;;;;;;;9.98;7.25;;;0.80;99.90;;;;;;1906742;75;21104;-86
2022/12/11 00:16:43;;;;;;;10.80;6.62;;;0.80;99.90;;;;;;1900572;75;21187;-86
2022/12/11 00:19:35;;;;;;;10.63;7.83;;;0.80;99.90;;;;;;1901404;75;21364;-87
2022/12/11 00:25:11;;;;;;;11.83;8.93;;;0.80;99.90;;;;;;1917145;72;28921;-87
2022/12/11 00:30:43;;;;;;;11.80;7.12;;;0.90;99.90;;;;;;1933861;72;22185;-87
2022/12/11 00:33:35;;;;;;;8.15;5.85;;;0.90;99.90;;;;;;1877715;75;21188;-87
2022/12/11 00:36:28;;;;;;;9.30;6.75;;;0.80;99.90;;;;;;1871585;75;21134;-86
2022/12/11 00:39:19;;;;;;;10.18;7.30;;;0.80;99.90;;;;;;1883697;75;21205;-87
2022/12/11 00:44:54;;;;;;;8.40;4.95;;;0.80;99.90;;;;;;1925202;72;22206;-87
2022/12/11 00:47:46;;;;;;;9.63;6.33;;;0.70;99.90;;;;;;1906584;74;21099;-86
2022/12/11 00:50:38;;;;;;;8.98;6.05;;;0.70;99.90;;;;;;1901431;75;21178;-86
2022/12/11 00:56:20;;;;;;;10.38;5.87;;;0.70;99.90;;;;;;1942982;73;22158;-87
2022/12/11 00:59:12;;;;;;;8.70;6.20;;;0.70;99.90;;;;;;1908875;74;21118;-87
2022/12/11 01:02:04;;;;;;;9.13;6.35;;;0.70;99.90;;;;;;1915492;74;21100;-86
2022/12/11 01:04:56;;;;;;;10.18;6.50;;;0.70;99.90;;;;;;1913274;74;21100;-86
2022/12/11 01:10:29;;;;;;;11.33;8.00;;;0.60;99.90;;;;;;1949216;72;22220;-87
2022/12/11 01:16:06;;;;;;;10.23;6.42;;;0.50;99.90;;;;;;1936448;72;22163;-87
2022/12/11 01:18:59;;;;;;;8.78;6.28;;;0.50;99.90;;;;;;1903599;75;21159;-87
2022/12/11 01:21:50;;;;;;;11.63;7.05;;;0.50;99.90;;;;;;1893465;75;21203;-86
2022/12/11 01:30:27;;;;;;;10.53;6.83;;;0.50;99.90;;;;;;1948904;72;22248;-87
2022/12/11 01:33:19;;;;;;;10.32;6.78;;;0.50;99.90;;;;;;1931822;73;21130;-87
2022/12/11 01:36:14;;;;;;;10.20;6.22;;;0.50;99.90;;;;;;1922332;73;21097;-87
2022/12/11 01:39:06;;;;;;;9.78;6.30;;;0.50;99.90;;;;;;1918119;73;21213;-87
2022/12/11 01:42:00;;;;;;;7.45;5.30;;;0.50;99.90;;;;;;1917057;73;21117;-87
2022/12/11 01:45:19;;;;;;;10.05;6.47;;;0.50;99.90;;;;;;1937644;73;21094;-88
2022/12/11 01:50:51;;;;;;;12.82;7.85;;;0.40;99.90;;;;;;1946262;72;22204;-88
2022/12/11 01:53:46;;;;;;;11.68;7.35;;;0.40;99.90;;;;;;1902642;75;21099;-87
2022/12/11 01:59:20;;;;;;;10.93;6.62;;;0.40;99.90;;;;;;1953969;72;22208;-88
2022/12/11 02:02:16;;;;;;;10.25;6.87;;;0.50;99.90;;;;;;1908389;73;21196;-87
2022/12/11 02:05:09;;;;;;;10.08;6.25;;;0.40;99.90;;;;;;1927722;74;21090;-87
2022/12/11 02:13:39;;;;;;;10.43;7.22;;;0.40;99.90;;;;;;1954786;72;22205;-88
2022/12/11 02:22:23;;;;;;;10.35;6.35;;;0.40;99.90;;;;;;1954143;72;22165;-87
2022/12/11 02:25:18;;;;;;;10.98;6.15;;;0.40;99.90;;;;;;1921889;73;21161;-88
2022/12/11 02:31:02;;;;;;;10.35;6.53;;;0.40;99.90;;;;;;1942915;72;22202;-87
2022/12/11 02:36:40;;;;;;;10.43;6.17;;;0.30;99.90;;;;;;1931473;72;22179;-87
2022/12/11 02:39:34;;;;;;;10.38;7.67;;;0.30;99.90;;;;;;1916182;75;21531;-88
2022/12/11 02:42:29;;;;;;;11.22;7.55;;;0.30;99.90;;;;;;1885929;75;21111;-87
2022/12/11 02:45:22;;;;;;;11.80;7.72;;;0.30;99.90;;;;;;1897646;75;21297;-87
2022/12/11 02:48:16;;;;;;;11.05;7.50;;;0.30;99.90;;;;;;1903095;75;21086;-87
2022/12/11 02:51:10;;;;;;;11.50;7.90;;;0.30;99.90;;;;;;1901922;75;21135;-87
2022/12/11 02:54:02;;;;;;;11.78;7.40;;;0.20;99.90;;;;;;1898312;75;21097;-87
2022/12/11 02:56:57;;;;;;;11.43;7.35;;;0.20;99.90;;;;;;1886374;75;21205;-88
2022/12/11 03:02:27;;;;;;;13.85;8.23;;;0.20;99.90;;;;;;1945606;73;22357;-87
2022/12/11 03:05:18;;;;;;;11.03;7.70;;;0.10;99.90;;;;;;1937651;73;21139;-87
2022/12/11 03:10:55;;;;;;;13.22;8.20;;;0.10;99.90;;;;;;1966958;72;22205;-89
2022/12/11 03:16:29;;;;;;;9.55;6.75;;;0.00;99.90;;;;;;1957702;72;22212;-88
2022/12/11 03:22:05;;;;;;;9.15;5.62;;;0.00;99.90;;;;;;1946485;72;22225;-88
2022/12/11 03:25:00;;;;;;;12.85;8.03;;;0.00;99.90;;;;;;1910374;74;21164;-88
2022/12/11 03:30:34;;;;;;;10.05;6.83;;;0.00;99.90;;;;;;1937274;72;22163;-88
2022/12/11 03:36:09;;;;;;;9.98;6.30;;;0.00;99.90;;;;;;1953512;72;22278;-88
2022/12/11 03:39:04;;;;;;;12.30;8.48;;;-0.10;99.90;;;;;;1911123;74;21095;-87
2022/12/11 03:41:57;;;;;;;11.43;6.75;;;0.00;99.90;;;;;;1922237;74;21075;-88
2022/12/11 03:44:50;;;;;;;12.00;7.67;;;0.00;99.90;;;;;;1918945;74;21257;-88
2022/12/11 03:47:44;;;;;;;11.63;7.83;;;0.00;99.90;;;;;;1910296;74;21585;-88
2022/12/11 03:50:37;;;;;;;9.00;6.37;;;0.00;99.90;;;;;;1904706;75;21110;-90
2022/12/11 03:53:29;;;;;;;14.20;9.05;;;0.00;99.90;;;;;;1918276;74;21148;-89
2022/12/11 03:56:22;;;;;;;12.85;7.95;;;0.00;99.90;;;;;;1922748;74;21102;-88
2022/12/11 04:01:54;;;;;;;15.58;9.40;;;0.00;99.90;;;;;;1944260;72;22329;-88
2022/12/11 04:07:24;;;;;;;12.47;9.00;;;0.00;99.90;;;;;;1949907;72;22189;-88
2022/12/11 04:10:16;;;;;;;14.15;9.00;;;0.00;99.90;;;;;;1904881;75;21658;-89
2022/12/11 04:13:08;;;;;;;14.83;9.08;;;-0.10;99.90;;;;;;1918045;74;21152;-88
2022/12/11 04:16:00;;;;;;;14.10;7.72;;;-0.10;99.90;;;;;;1911557;74;21099;-88
2022/12/11 04:30:36;;;;;;;13.78;8.48;;;-0.20;99.90;;;;;;1872411;75;21160;-89
2022/12/11 04:33:29;;;;;;;13.00;7.80;;;-0.20;99.90;;;;;;1900392;75;21120;-87
2022/12/11 04:36:21;;;;;;;10.30;6.72;;;-0.20;99.90;;;;;;1886923;75;21206;-87
2022/12/11 04:39:12;;;;;;;11.18;6.92;;;-0.20;99.90;;;;;;1880590;75;21055;-88
2022/12/11 04:42:04;;;;;;;7.83;5.08;;;-0.20;99.90;;;;;;1885426;75;21115;-88
2022/12/11 04:44:55;;;;;;;11.48;7.67;;;-0.10;99.90;;;;;;1904666;75;21173;-88
2022/12/11 04:50:30;;;;;;;11.53;7.95;;;-0.20;99.90;;;;;;1956080;72;22173;-88
2022/12/11 04:56:02;;;;;;;18.77;11.15;;;-0.10;99.90;;;;;;1926576;72;22285;-88
2022/12/11 05:01:32;;;;;;;11.70;7.08;;;-0.10;99.90;;;;;;1945104;72;22657;-88
2022/12/11 05:04:23;;;;;;;16.02;9.78;;;-0.10;99.90;;;;;;1895627;75;21138;-88
2022/12/11 05:07:15;;;;;;;10.88;6.87;;;-0.20;99.90;;;;;;1879891;75;21150;-87
2022/12/11 05:15:29;;;;;;;14.98;9.15;;;-0.20;99.90;;;;;;1938225;72;22180;-89
2022/12/11 05:21:01;;;;;;;9.98;6.40;;;-0.20;99.90;;;;;;1923513;72;22180;-88
2022/12/11 05:23:52;;;;;;;13.43;8.45;;;-0.30;99.90;;;;;;1895726;74;21176;-87
2022/12/11 05:29:24;;;;;;;11.53;7.28;;;-0.30;99.90;;;;;;1954240;72;22298;-87
2022/12/11 05:32:15;;;;;;;14.38;8.45;;;-0.30;99.90;;;;;;1929373;73;21123;-88
2022/12/11 05:37:51;;;;;;;11.38;6.62;;;-0.30;99.90;;;;;;1953571;72;22264;-87
2022/12/11 05:40:43;;;;;;;11.57;6.97;;;-0.30;99.90;;;;;;1905803;74;21111;-90
2022/12/11 05:43:36;;;;;;;11.38;7.15;;;-0.30;99.90;;;;;;1903044;75;21115;-90
2022/12/11 05:46:30;;;;;;;14.68;8.90;;;-0.40;99.90;;;;;;1885198;75;21122;-88
2022/12/11 05:49:23;;;;;;;15.40;9.23;;;-0.40;99.90;;;;;;1913577;74;21212;-90
2022/12/11 05:52:16;;;;;;;13.50;8.65;;;-0.30;99.90;;;;;;1906386;74;21209;-88
2022/12/11 05:55:09;;;;;;;13.05;8.05;;;-0.40;99.90;;;;;;1915100;73;21106;-87
2022/12/11 06:00:48;;;;;;;11.60;5.03;;;-0.40;99.90;;;;;;1929838;72;22220;-87
2022/12/11 06:06:18;;;;;;;12.03;6.78;;;-0.50;99.90;;;;;;1945274;72;22302;-88
2022/12/11 06:09:13;;;;;;;13.50;8.18;;;-0.50;99.90;;;;;;1922307;73;21118;-88
2022/12/11 06:12:06;;;;;;;13.83;8.65;;;-0.40;99.90;;;;;;1899494;75;21122;-88
2022/12/11 06:14:59;;;;;;;13.78;8.33;;;-0.50;99.90;;;;;;1926409;73;21042;-88
2022/12/11 06:17:51;;;;;;;10.80;6.67;;;-0.50;99.90;;;;;;1898905;75;21176;-87
2022/12/11 06:20:43;;;;;;;12.23;7.53;;;-0.50;99.90;;;;;;1896764;75;21058;-88
2022/12/11 06:23:35;;;;;;;13.10;8.33;;;-0.50;99.90;;;;;;1883925;75;21184;-89
2022/12/11 06:26:27;;;;;;;12.20;5.53;;;-0.50;99.90;;;;;;1903781;75;21193;-87
2022/12/11 06:29:19;;;;;;;11.85;7.60;;;-0.50;99.90;;;;;;1900764;75;21114;-87
2022/12/11 06:32:11;;;;;;;16.05;9.28;;;-0.50;99.90;;;;;;1915537;75;21143;-87
2022/12/11 06:35:02;;;;;;;8.83;4.87;;;-0.50;99.90;;;;;;1910425;75;21180;-89
2022/12/11 06:37:54;;;;;;;11.33;6.85;;;-0.50;99.90;;;;;;1884201;75;21152;-87
2022/12/11 06:40:46;;;;;;;8.30;5.35;;;-0.50;99.90;;;;;;1876266;76;21204;-87
2022/12/11 06:43:38;;;;;;;14.23;8.68;;;-0.60;99.90;;;;;;1907044;75;21106;-88
2022/12/11 06:46:30;;;;;;;15.00;9.33;;;-0.60;99.90;;;;;;1862630;76;21111;-88
2022/12/11 06:49:22;;;;;;;15.90;8.40;;;-0.60;99.90;;;;;;1909626;75;21315;-87
2022/12/11 06:52:14;;;;;;;15.28;9.33;;;-0.50;99.90;;;;;;1910474;75;21082;-87
2022/12/11 06:55:08;;;;;;;14.90;8.88;;;-0.60;99.90;;;;;;1884879;75;21135;-87
2022/12/11 07:00:45;;;;;;;15.05;8.65;;;-0.50;99.90;;;;;;1950532;72;22189;-87
2022/12/11 07:06:19;;;;;;;16.15;9.65;;;-0.50;99.90;;;;;;1924995;72;22165;-88
2022/12/11 07:09:10;;;;;;;13.20;7.67;;;-0.50;99.90;;;;;;1881692;75;21135;-87
2022/12/11 07:12:02;;;;;;;11.22;6.90;;;-0.40;99.90;;;;;;1901522;75;21114;-88
2022/12/11 07:14:54;;;;;;;13.95;8.33;;;-0.40;99.90;;;;;;1889362;75;21098;-87
2022/12/11 07:20:30;;;;;;;15.90;11.55;;;-0.60;99.90;;;;;;1929657;72;28166;-90
2022/12/11 07:26:01;;;;;;;13.78;8.93;;;-0.50;99.90;;;;;;1951308;73;22357;-88
2022/12/11 07:28:55;;;;;;;14.78;9.23;;;-0.50;99.90;;;;;;1898619;75;21150;-88
2022/12/11 07:31:47;;;;;;;14.43;8.60;;;-0.50;99.90;;;;;;1883485;75;21177;-88
2022/12/11 07:34:39;;;;;;;12.28;7.33;;;-0.50;99.90;;;;;;1885671;75;21054;-87
2022/12/11 07:40:13;;;;;;;14.20;9.13;;;-0.50;99.90;;;;;;1930391;72;22188;-88
2022/12/11 07:45:44;;;;;;;9.73;5.55;;;-0.50;99.90;;;;;;1941307;72;22202;-88
2022/12/11 07:51:18;;;;;;;9.95;6.45;;;-0.60;99.90;;;;;;1953911;72;22264;-87
2022/12/11 07:56:58;;;;;;;9.45;5.30;;;-0.50;99.90;;;;;;1954780;72;22157;-88
2022/12/11 08:02:29;;;;;;;13.75;9.13;;;-0.60;99.90;;;;;;1941983;72;22159;-90
2022/12/11 08:05:22;;;;;;;10.32;6.62;;;-0.50;99.90;;;;;;1877100;75;21289;-88
2022/12/11 08:08:14;;;;;;;13.65;8.80;;;-0.50;99.90;;;;;;1877507;75;21095;-87
2022/12/11 08:11:08;;;;;;;11.38;6.28;;;-0.50;99.90;;;;;;1894474;75;21225;-86
2022/12/11 08:16:41;;;;;;;14.65;8.65;;;-0.50;99.90;;;;;;1942969;72;22214;-88
2022/12/11 08:19:33;;;;;;;13.93;8.15;;;-0.50;99.90;;;;;;1871661;75;21090;-88
2022/12/11 08:22:25;;;;;;;11.80;6.70;;;-0.50;99.90;;;;;;1893755;75;21214;-88
2022/12/11 08:25:16;;;;;;;12.10;8.10;;;-0.40;99.90;;;;;;1872882;75;21288;-90
2022/12/11 08:30:47;;;;;;;13.40;9.20;;;-0.50;99.90;;;;;;2044139;69;22142;-88
2022/12/11 08:36:20;;;;;;;13.20;7.33;;;-0.40;99.90;;;;;;1931680;72;22251;-88
2022/12/11 08:39:11;;;;;;;13.60;7.47;;;-0.40;99.90;;;;;;1887358;75;21114;-88
2022/12/11 08:42:04;;;;;;;11.63;7.45;;;-0.30;99.90;;;;;;1892052;75;21114;-87
2022/12/11 08:44:58;;;;;;;13.65;8.30;;;-0.30;99.90;;;;;;1863824;76;21156;-88
2022/12/11 08:47:50;;;;;;;11.28;7.12;;;-0.40;99.90;;;;;;1882124;75;21127;-89
2022/12/11 08:50:41;;;;;;;13.08;8.63;;;-0.40;99.90;;;;;;1884112;75;21147;-88
2022/12/11 08:56:15;;;;;;;14.03;9.35;;;-0.30;99.90;;;;;;1942900;72;22233;-79
2022/12/11 08:59:08;;;;;;;11.22;7.50;;;-0.20;99.90;;;;;;1930524;73;21095;-79
2022/12/11 09:01:59;;;;;;;11.25;8.00;;;-0.20;99.90;;;;;;1930110;73;21679;-81
2022/12/11 09:04:51;;;;;;;16.52;9.70;;;-0.20;99.90;;;;;;1935926;73;21145;-80
2022/12/11 09:07:43;;;;;;;10.95;6.80;;;-0.10;99.90;;;;;;1916903;73;21138;-79
2022/12/11 09:10:34;;;;;;;14.50;9.95;;;-0.10;99.90;;;;;;1935681;73;21154;-79
2022/12/11 09:13:26;;;;;;;15.48;9.03;;;-0.10;99.90;;;;;;1926741;73;21102;-79
2022/12/11 09:16:20;;;;;;;14.20;8.75;;;-0.10;99.90;;;;;;1922960;73;21039;-79
2022/12/11 09:19:14;;;;;;;13.28;8.80;;;-0.10;99.90;;;;;;1921855;73;21135;-79
2022/12/11 09:24:45;;;;;;;14.68;8.78;;;-0.10;99.90;;;;;;1940344;72;22267;-79
2022/12/11 09:30:18;;;;;;;13.78;8.70;;;0.00;99.90;;;;;;1929978;72;22263;-79
2022/12/11 09:33:10;;;;;;;7.45;4.83;;;0.00;99.90;;;;;;1906152;75;21479;-78
2022/12/11 09:36:01;;;;;;;13.72;8.08;;;0.10;99.90;;;;;;1915082;75;21182;-81
2022/12/11 09:38:53;;;;;;;12.98;8.78;;;0.10;99.90;;;;;;1902055;75;21119;-80
2022/12/11 09:41:52;;;;;;;14.93;9.25;;;0.10;99.90;;;;;;1900013;75;21196;-79
2022/12/11 09:44:46;;;;;;;14.65;9.33;;;0.20;99.90;;;;;;1915806;75;21195;-79
2022/12/11 09:47:41;;;;;;;14.25;9.00;;;0.20;99.90;;;;;;1913737;75;21099;-80
2022/12/11 09:50:34;;;;;;;13.55;8.60;;;0.20;99.90;;;;;;1872656;76;21151;-78
2022/12/11 09:56:09;;;;;;;14.87;9.38;;;0.20;99.90;;;;;;1940988;72;22201;-82
2022/12/11 09:59:05;;;;;;;15.80;9.80;;;0.30;99.90;;;;;;1864633;76;21178;-77
2022/12/11 10:04:43;;;;;;;15.03;8.98;;;0.40;99.90;;;;;;1941622;72;22212;-77
2022/12/11 10:07:38;;;;;;;15.25;9.35;;;0.40;99.90;;;;;;1938298;73;21140;-77
2022/12/11 10:13:24;;;;;;;14.68;8.70;;;0.50;99.90;;;;;;1943427;72;22146;-77
2022/12/11 10:16:18;;;;;;;8.13;5.35;;;0.50;99.90;;;;;;1883739;75;21137;-78
2022/12/11 10:19:15;;;;;;;15.88;9.88;;;0.60;99.90;;;;;;1894221;75;21094;-79
2022/12/11 10:22:11;;;;;;;14.75;9.18;;;0.60;99.90;;;;;;1887047;73;21150;-80
2022/12/11 10:25:05;;;;;;;15.13;9.65;;;0.70;99.90;;;;;;1883643;75;21172;-77
2022/12/11 10:28:00;;;;;;;14.73;9.50;;;0.70;99.90;;;;;;1887629;75;21143;-77
2022/12/11 10:30:55;;;;;;;16.90;10.45;;;0.70;99.90;;;;;;1883846;73;21139;-77
2022/12/11 10:36:32;;;;;;;15.38;10.23;;;0.90;99.90;;;;;;1953217;72;22152;-77
2022/12/11 10:39:24;;;;;;;16.35;9.98;;;0.90;99.90;;;;;;1944092;73;21521;-77
2022/12/11 10:42:19;;;;;;;15.83;10.03;;;1.00;99.90;;;;;;1925419;73;21158;-77
2022/12/11 10:47:50;;;;;;;15.32;9.55;;;1.30;99.90;;;;;;1934042;72;22187;-77
2022/12/11 10:50:43;;;;;;;15.75;10.45;;;1.40;99.90;;;;;;1894030;75;21095;-76
2022/12/11 10:56:13;;;;;;;13.43;9.20;;;1.60;99.90;;;;;;1934168;72;22276;-77
2022/12/11 10:59:05;;;;;;;14.55;10.30;;;1.70;99.90;;;;;;1913063;74;21110;-78
2022/12/11 11:01:57;;;;;;;16.05;10.72;;;1.70;99.90;;;;;;1897454;75;21094;-78
2022/12/11 11:04:49;;;;;;;16.90;11.20;;;1.70;99.90;;;;;;1905325;75;21161;-77
2022/12/11 11:07:40;;;;;;;16.32;10.55;;;1.70;99.90;;;;;;1905807;75;21110;-77
2022/12/11 11:10:32;;;;;;;14.28;9.58;;;1.80;99.90;;;;;;1903411;75;21171;-76
2022/12/11 11:16:05;;;;;;;14.95;10.08;;;2.00;99.90;;;;;;1927608;72;22664;-77
2022/12/11 11:21:36;;;;;;;15.55;10.63;;;2.10;99.90;;;;;;1938435;72;22185;-77
2022/12/11 11:24:31;;;;;;;14.83;10.20;;;2.30;99.90;;;;;;1914777;75;21179;-77
2022/12/11 11:27:28;;;;;;;16.57;11.28;;;2.30;99.90;;;;;;1916269;75;21176;-78
2022/12/11 11:30:22;;;;;;;15.90;10.90;;;2.30;99.90;;;;;;1887211;75;21139;-77
2022/12/11 11:33:17;;;;;;;16.60;11.12;;;2.30;99.90;;;;;;1894701;75;21116;-77
2022/12/11 11:36:19;;;;;;;18.27;10.68;;;2.30;99.90;;;;;;1883612;75;21055;-77
2022/12/11 11:39:20;;;;;;;16.55;11.28;;;2.30;99.90;;;;;;1903781;75;21119;-76
2022/12/11 11:42:15;;;;;;;16.75;11.00;;;2.40;99.90;;;;;;1897434;75;21162;-77
2022/12/11 11:45:12;;;;;;;18.05;11.40;;;2.40;99.90;;;;;;1913173;75;21164;-77
2022/12/11 11:50:46;;;;;;;15.50;10.60;;;2.70;99.90;;;;;;1933208;72;22158;-77
2022/12/11 11:56:27;;;;;;;16.37;11.28;;;2.70;99.90;;;;;;1926820;72;22201;-77
2022/12/11 11:59:22;;;;;;;17.75;11.12;;;2.70;99.90;;;;;;1897631;75;21118;-79
2022/12/11 12:02:16;;;;;;;18.50;11.12;;;2.80;99.90;;;;;;1893550;75;21057;-76
2022/12/11 12:05:13;;;;;;;15.70;10.85;;;2.80;99.90;;;;;;1895176;75;21066;-77
2022/12/11 12:08:08;;;;;;;15.18;11.20;;;2.90;99.90;;;;;;1885862;75;21143;-77
2022/12/11 12:11:03;;;;;;;15.15;11.25;;;3.00;99.90;;;;;;1904256;74;21620;-77
2022/12/11 12:13:59;;;;;;;15.95;11.10;;;3.00;99.90;;;;;;1887560;75;21165;-76
2022/12/11 12:16:56;;;;;;;15.90;10.82;;;3.10;99.90;;;;;;1900264;75;21175;-78
2022/12/11 12:19:52;;;;;;;15.17;9.73;;;3.30;99.90;;;;;;1910414;75;21105;-77
2022/12/11 12:23:15;;;;;;;14.03;10.20;;;3.40;99.90;;;;;;1900596;75;21071;-76
2022/12/11 12:26:11;;;;;;;14.15;9.95;;;3.40;99.90;;;;;;1915747;75;21154;-78
2022/12/11 12:29:10;;;;;;;15.43;10.55;;;3.50;99.90;;;;;;1906720;74;21114;-78
2022/12/11 12:32:04;;;;;;;;;;;3.60;99.90;;;;;;1904404;74;21106;-76
2022/12/11 12:35:03;;;;;;;16.05;10.65;;;3.50;99.90;;;;;;1903747;75;20173;-76
2022/12/11 12:40:40;;;;;;;13.40;10.00;;;3.70;99.90;;;;;;1932923;72;22298;-76
2022/12/11 12:43:43;;;;;;;16.35;10.03;;;3.80;99.90;;;;;;1915004;74;21098;-77
2022/12/11 12:47:02;;;;;;;13.80;10.40;;;3.80;99.90;;;;;;1914220;75;21059;-77
2022/12/11 12:49:56;;;;;;;13.03;9.03;;;3.80;99.90;;;;;;1937307;73;21091;-77
2022/12/11 13:01:12;;;;;;;13.68;9.83;;;4.10;99.90;;;;;;1939974;72;20252;-78
2022/12/11 13:04:07;;;;;;;12.53;10.40;;;4.20;99.90;;;;;;1897622;75;21050;-78
2022/12/11 13:07:01;;;;;;;12.03;9.35;;;4.20;99.90;;;;;;1907099;75;21199;-79
2022/12/11 13:18:37;;;;;;;14.75;10.40;;;4.20;99.90;;;;;;1943660;72;22287;-77
2022/12/11 13:21:31;;;;;;;15.55;10.78;;;4.10;99.90;;;;;;1939984;73;21106;-78
2022/12/11 13:24:28;;;;;;;15.85;10.85;;;3.80;99.90;;;;;;1916711;75;21139;-78
2022/12/11 13:27:26;;;;;;;15.53;10.95;;;3.70;99.90;;;;;;1938513;73;21090;-79
2022/12/11 13:30:27;;;;;;;15.70;10.43;;;3.50;99.90;;;;;;1930418;73;21090;-79
2022/12/11 13:36:20;;;;;;;15.20;10.13;;;3.20;99.90;;;;;;1966854;72;22650;-78
2022/12/11 13:42:02;;;;;;;17.42;10.35;;;3.00;99.90;;;;;;1927840;72;22443;-79
2022/12/11 13:44:54;;;;;;;16.07;11.10;;;2.90;99.90;;;;;;1895919;75;21103;-78
2022/12/11 13:50:28;;;;;;;15.23;10.35;;;2.70;99.90;;;;;;1933210;72;22292;-79
2022/12/11 13:56:01;;;;;;;17.57;10.45;;;2.60;99.90;;;;;;1934241;72;22157;-79
2022/12/11 13:58:52;;;;;;;14.55;10.53;;;2.60;99.90;;;;;;1899198;75;21155;-78
2022/12/11 14:01:44;;;;;;;16.40;10.43;;;2.50;99.90;;;;;;1898336;75;21139;-78
2022/12/11 14:04:38;;;;;;;15.58;10.15;;;2.50;99.90;;;;;;1895382;75;21205;-78
2022/12/11 14:07:32;;;;;;;14.93;10.03;;;2.50;99.90;;;;;;1906005;75;21121;-78
2022/12/11 14:10:26;;;;;;;14.98;10.40;;;2.40;99.90;;;;;;1889201;75;21102;-77
2022/12/11 14:16:01;;;;;;;16.27;10.45;;;2.60;99.90;;;;;;1936905;72;22318;-78
2022/12/11 14:18:55;;;;;;;14.13;9.80;;;2.60;99.90;;;;;;1899922;74;21233;-78
2022/12/11 14:21:56;;;;;;;14.63;9.60;;;2.70;99.90;;;;;;1906986;75;21184;-78
2022/12/11 14:27:30;;;;;;;13.58;9.63;;;2.70;99.90;;;;;;1942498;72;22415;-78
2022/12/11 14:30:27;;;;;;;13.65;9.73;;;2.60;99.90;;;;;;1899002;73;21209;-78
2022/12/11 14:35:58;;;;;;;13.68;9.38;;;2.60;99.90;;;;;;1936486;72;22300;-78
2022/12/11 14:38:53;;;;;;;15.05;9.50;;;2.50;99.90;;;;;;1904892;75;21172;-78
2022/12/11 14:44:29;;;;;;;13.60;9.75;;;2.60;99.90;;;;;;1934396;72;22214;-79
2022/12/11 14:47:24;;;;;;;15.60;9.93;;;2.60;99.90;;;;;;1889673;75;21119;-78
2022/12/11 14:50:20;;;;;;;13.20;8.95;;;2.60;99.90;;;;;;1908262;75;21067;-78
2022/12/11 14:53:15;;;;;;;14.70;9.10;;;2.60;99.90;;;;;;1886690;75;21220;-77
2022/12/11 14:56:09;;;;;;;16.42;10.98;;;2.50;99.90;;;;;;1906790;74;21387;-77
2022/12/11 14:59:03;;;;;;;15.45;10.60;;;2.60;99.90;;;;;;1893102;75;21175;-78
2022/12/11 15:02:04;;;;;;;14.87;9.73;;;2.60;99.90;;;;;;1911152;75;21123;-77
2022/12/11 15:05:13;;;;;;;13.53;9.68;;;2.50;99.90;;;;;;1907502;75;21099;-77
2022/12/11 15:10:47;;;;;;;14.58;9.15;;;2.50;99.90;;;;;;1945773;72;22135;-79
2022/12/11 15:13:45;;;;;;;15.48;10.48;;;2.40;99.90;;;;;;1912902;74;21176;-79
2022/12/11 15:16:41;;;;;;;14.65;9.88;;;2.40;99.90;;;;;;1921967;74;21103;-78
2022/12/11 15:19:35;;;;;;;14.60;9.68;;;2.40;99.90;;;;;;1916168;74;21121;-78
2022/12/11 15:22:29;;;;;;;16.23;10.63;;;2.30;99.90;;;;;;1919816;74;21095;-77
2022/12/11 15:25:26;;;;;;;16.32;10.50;;;2.20;99.90;;;;;;1914694;74;21079;-77
2022/12/11 15:28:28;;;;;;;15.95;9.48;;;2.10;99.90;;;;;;1908342;74;21095;-77
2022/12/11 15:31:28;;;;;;;15.30;10.35;;;2.00;99.90;;;;;;1904361;75;21169;-79
2022/12/11 15:34:24;;;;;;;15.58;10.30;;;2.00;99.90;;;;;;1915714;74;21063;-77
2022/12/11 15:40:03;;;;;;;16.50;13.15;;;1.90;99.90;;;;;;1921865;72;28523;-79
2022/12/11 15:45:35;;;;;;;15.35;11.33;;;1.90;99.90;;;;;;1926011;72;22191;-78
2022/12/11 15:48:27;;;;;;;16.05;10.58;;;2.00;99.90;;;;;;1931637;73;21121;-78
2022/12/11 15:51:18;;;;;;;18.32;11.53;;;2.00;99.90;;;;;;1919273;73;21115;-77
2022/12/11 15:54:10;;;;;;;17.07;11.18;;;2.00;99.90;;;;;;1925534;73;21377;-78
2022/12/11 15:59:43;;;;;;;16.65;11.30;;;1.90;99.90;;;;;;1920601;72;22298;-79
2022/12/11 16:05:14;;;;;;;16.17;10.88;;;1.80;99.90;;;;;;1931422;72;22177;-78
2022/12/11 16:08:07;;;;;;;16.70;11.15;;;1.80;99.90;;;;;;1940594;73;21197;-78
2022/12/11 16:10:58;;;;;;;15.55;10.55;;;1.80;99.90;;;;;;1927045;72;21091;-78
2022/12/11 16:13:50;;;;;;;16.85;11.22;;;1.80;99.90;;;;;;1932669;73;21062;-84
2022/12/11 16:16:42;;;;;;;17.70;11.48;;;1.80;99.90;;;;;;1985754;72;21087;-85
2022/12/11 16:19:34;;;;;;;18.23;10.88;;;1.70;99.90;;;;;;1951399;72;21130;-85
2022/12/11 16:22:26;;;;;;;17.80;11.28;;;1.70;99.90;;;;;;1887567;75;21822;-85
2022/12/11 16:25:18;;;;;;;17.32;11.28;;;1.70;99.90;;;;;;1936131;72;21091;-86
2022/12/11 16:28:11;;;;;;;16.57;10.82;;;1.70;99.90;;;;;;1936979;73;21143;-85
2022/12/11 16:31:04;;;;;;;17.55;11.57;;;1.70;99.90;;;;;;1944235;73;21083;-85
2022/12/11 16:33:57;;;;;;;18.42;11.50;;;1.70;99.90;;;;;;1963808;72;21109;-85
2022/12/11 16:36:49;;;;;;;19.65;12.28;;;1.80;99.90;;;;;;1950578;72;21111;-85
2022/12/11 16:39:43;;;;;;;20.68;12.93;;;1.80;99.90;;;;;;1942649;72;21173;-85
2022/12/11 16:42:39;;;;;;;19.70;12.47;;;1.70;99.90;;;;;;1937540;73;21114;-86
2022/12/11 16:45:31;;;;;;;19.25;12.73;;;1.80;99.90;;;;;;1924275;73;21148;-85
2022/12/11 16:48:23;;;;;;;21.07;13.05;;;1.70;99.90;;;;;;1938558;72;21104;-85
2022/12/11 16:51:14;;;;;;;21.45;13.88;;;1.70;99.90;;;;;;1956037;72;21145;-85
2022/12/11 16:54:10;;;;;;;23.80;14.30;;;1.50;99.90;;;;;;1926522;73;21155;-85
2022/12/11 16:57:01;;;;;;;25.10;15.32;;;1.50;99.90;;;;;;1936878;73;21074;-84
2022/12/11 16:59:54;;;;;;;25.55;15.83;;;1.50;99.90;;;;;;1935037;73;21119;-85
2022/12/11 17:05:26;;;;;;;24.67;16.07;;;1.50;99.90;;;;;;1946935;72;22165;-85
2022/12/11 17:10:55;;;;;;;19.85;13.78;;;1.50;99.90;;;;;;1930814;72;22244;-86
2022/12/11 17:16:32;;;;;;;25.50;15.00;;;1.60;99.90;;;;;;1954401;72;22217;-85
2022/12/11 17:19:24;;;;;;;21.07;14.90;;;1.60;99.90;;;;;;1933437;73;21113;-85
2022/12/11 17:22:22;;;;;;;21.75;14.30;;;1.70;99.90;;;;;;1918902;73;21109;-86
2022/12/11 17:25:18;;;;;;;19.87;14.38;;;1.70;99.90;;;;;;1916837;75;21125;-86
2022/12/11 17:28:09;;;;;;;20.88;13.65;;;1.70;99.90;;;;;;1918519;73;21082;-85
2022/12/11 17:31:02;;;;;;;21.73;13.48;;;1.70;99.90;;;;;;1934817;73;21149;-85
2022/12/11 17:33:56;;;;;;;19.23;13.00;;;1.70;99.90;;;;;;1928514;73;21159;-85
2022/12/11 17:36:52;;;;;;;;;;;1.80;99.90;;;;;;1921391;73;21114;-85
2022/12/11 17:39:46;;;;;;;20.52;13.88;;;1.80;99.90;;;;;;1920325;73;20148;-86
2022/12/11 17:42:44;;;;;;;23.57;14.75;;;1.70;99.90;;;;;;1938584;73;21174;-86
2022/12/11 17:48:21;;;;;;;21.55;13.68;;;1.60;99.90;;;;;;1953806;72;22144;-86
2022/12/11 17:51:22;;;;;;;21.20;13.95;;;1.60;99.90;;;;;;1913226;75;21167;-86
2022/12/11 17:54:11;;;;;;;21.73;15.15;;;1.70;99.90;;;;;;1914139;75;21164;-86
2022/12/11 17:57:03;;;;;;;29.90;19.35;;;1.70;99.90;;;;;;1876547;75;21094;-85
2022/12/11 18:05:27;;;;;;;20.90;14.70;;;1.80;99.90;;;;;;1951368;72;22196;-86
2022/12/11 18:11:07;;;;;;;20.60;13.30;;;1.90;99.90;;;;;;1934680;72;22177;-86
2022/12/11 18:14:07;;;;;;;19.37;13.70;;;2.00;99.90;;;;;;1875125;75;21071;-87
2022/12/11 18:17:01;;;;;;;20.97;13.90;;;1.90;99.90;;;;;;1836585;78;21054;-86
2022/12/11 18:19:53;;;;;;;19.60;13.78;;;1.90;99.90;;;;;;1876963;75;21090;-85
2022/12/11 18:25:27;;;;;;;22.87;15.20;;;1.90;99.90;;;;;;1929338;72;22211;-86
2022/12/11 18:31:01;;;;;;;22.13;15.20;;;1.80;99.90;;;;;;1937747;72;22271;-85
2022/12/11 18:36:31;;;;;;;22.80;15.32;;;2.00;99.90;;;;;;1942637;72;22342;-85
2022/12/11 18:39:22;;;;;;;24.80;15.40;;;2.00;99.90;;;;;;1906060;74;21150;-87
2022/12/11 18:42:18;;;;;;;24.10;15.55;;;2.00;99.90;;;;;;1905175;75;21098;-89
2022/12/11 18:45:12;;;;;;;21.23;14.58;;;1.90;99.90;;;;;;1905163;75;21094;-85
2022/12/11 18:48:05;;;;;;;22.05;15.68;;;1.80;99.90;;;;;;1901829;75;21164;-85
2022/12/11 18:50:57;;;;;;;26.85;15.48;;;1.80;99.90;;;;;;1900468;75;21102;-86
2022/12/11 18:56:34;;;;;;;22.58;14.75;;;1.80;99.90;;;;;;1955627;72;22228;-85
2022/12/11 18:59:26;;;;;;;21.17;15.28;;;1.90;99.90;;;;;;1915255;74;21063;-85
2022/12/11 19:02:20;;;;;;;22.87;14.80;;;2.00;99.90;;;;;;1907605;74;21143;-86
2022/12/11 19:05:13;;;;;;;22.95;14.47;;;2.00;99.90;;;;;;1921257;74;21099;-86
2022/12/11 19:10:45;;;;;;;20.82;14.93;;;2.00;99.90;;;;;;1931886;72;22222;-86
2022/12/11 19:13:40;;;;;;;20.15;14.35;;;1.90;99.90;;;;;;1903944;75;21144;-86
2022/12/11 19:16:33;;;;;;;21.00;14.23;;;2.00;99.90;;;;;;1903998;75;21094;-87